sensor_id;sensor_type;location;lat;lon;timestamp;temperature;humidity
1175;DHT22;576;48.418;10.074;2023-06-14T00:02:20;24.00;50.60
1175;DHT22;576;48.418;10.074;2023-06-14T00:04:49;23.60;51.10
1175;DHT22;576;48.418;10.074;2023-06-14T00:07:33;23.40;51.50
1175;DHT22;576;48.418;10.074;2023-06-14T00:10:02;23.50;51.50
1175;DHT22;576;48.418;10.074;2023-06-14T00:12:33;23.60;51.50
1175;DHT22;576;48.418;10.074;2023-06-14T00:15:02;23.60;51.70
1175;DHT22;576;48.418;10.074;2023-06-14T00:17:30;23.60;51.40
1175;DHT22;576;48.418;10.074;2023-06-14T00:19:59;23.60;51.30
1175;DHT22;576;48.418;10.074;2023-06-14T00:22:27;23.60;51.30
1175;DHT22;576;48.418;10.074;2023-06-14T00:24:57;23.50;52.00
1175;DHT22;576;48.418;10.074;2023-06-14T00:27:35;23.50;52.20
1175;DHT22;576;48.418;10.074;2023-06-14T00:30:04;23.50;51.90
1175;DHT22;576;48.418;10.074;2023-06-14T00:32:33;23.50;51.80
1175;DHT22;576;48.418;10.074;2023-06-14T00:35:01;23.50;51.60
1175;DHT22;576;48.418;10.074;2023-06-14T00:37:29;23.50;51.90
1175;DHT22;576;48.418;10.074;2023-06-14T00:39:57;23.50;51.40
1175;DHT22;576;48.418;10.074;2023-06-14T00:42:26;23.50;51.60
1175;DHT22;576;48.418;10.074;2023-06-14T00:44:56;23.50;51.50
1175;DHT22;576;48.418;10.074;2023-06-14T00:47:24;23.40;51.80
1175;DHT22;576;48.418;10.074;2023-06-14T00:49:54;23.40;52.40
1175;DHT22;576;48.418;10.074;2023-06-14T00:52:23;23.40;52.30
1175;DHT22;576;48.418;10.074;2023-06-14T00:54:52;23.40;51.90
1175;DHT22;576;48.418;10.074;2023-06-14T00:57:20;23.30;52.20
1175;DHT22;576;48.418;10.074;2023-06-14T00:59:50;23.30;52.40
1175;DHT22;576;48.418;10.074;2023-06-14T01:02:20;23.40;52.40
1175;DHT22;576;48.418;10.074;2023-06-14T01:04:49;23.40;52.20
1175;DHT22;576;48.418;10.074;2023-06-14T01:07:25;23.50;51.60
1175;DHT22;576;48.418;10.074;2023-06-14T01:10:08;23.50;52.00
1175;DHT22;576;48.418;10.074;2023-06-14T01:12:39;23.40;52.00
1175;DHT22;576;48.418;10.074;2023-06-14T01:15:13;23.40;52.20
1175;DHT22;576;48.418;10.074;2023-06-14T01:17:45;23.40;51.50
1175;DHT22;576;48.418;10.074;2023-06-14T01:20:15;23.40;51.80
1175;DHT22;576;48.418;10.074;2023-06-14T01:22:50;23.30;51.80
1175;DHT22;576;48.418;10.074;2023-06-14T01:25:20;23.10;51.70
1175;DHT22;576;48.418;10.074;2023-06-14T01:27:51;23.00;52.60
1175;DHT22;576;48.418;10.074;2023-06-14T01:30:21;23.00;52.00
1175;DHT22;576;48.418;10.074;2023-06-14T01:32:53;22.90;52.40
1175;DHT22;576;48.418;10.074;2023-06-14T01:35:23;23.00;52.70
1175;DHT22;576;48.418;10.074;2023-06-14T01:37:53;23.00;52.20
1175;DHT22;576;48.418;10.074;2023-06-14T01:40:22;22.90;52.90
1175;DHT22;576;48.418;10.074;2023-06-14T01:42:52;22.90;52.90
1175;DHT22;576;48.418;10.074;2023-06-14T01:45:23;22.90;53.20
1175;DHT22;576;48.418;10.074;2023-06-14T01:47:51;23.00;52.90
1175;DHT22;576;48.418;10.074;2023-06-14T01:50:20;23.10;53.10
1175;DHT22;576;48.418;10.074;2023-06-14T01:52:48;23.20;52.80
1175;DHT22;576;48.418;10.074;2023-06-14T01:55:18;23.20;52.10
1175;DHT22;576;48.418;10.074;2023-06-14T01:57:48;23.20;52.30
1175;DHT22;576;48.418;10.074;2023-06-14T02:00:17;23.10;52.90
1175;DHT22;576;48.418;10.074;2023-06-14T02:02:45;23.20;52.80
1175;DHT22;576;48.418;10.074;2023-06-14T02:05:14;23.20;52.70
1175;DHT22;576;48.418;10.074;2023-06-14T02:07:42;23.20;52.80
1175;DHT22;576;48.418;10.074;2023-06-14T02:10:10;23.20;52.70
1175;DHT22;576;48.418;10.074;2023-06-14T02:12:40;23.30;52.50
1175;DHT22;576;48.418;10.074;2023-06-14T02:15:09;23.20;52.50
1175;DHT22;576;48.418;10.074;2023-06-14T02:17:44;23.20;52.50
1175;DHT22;576;48.418;10.074;2023-06-14T02:20:14;23.20;52.50
1175;DHT22;576;48.418;10.074;2023-06-14T02:22:42;23.20;52.20
1175;DHT22;576;48.418;10.074;2023-06-14T02:25:10;23.10;52.10
1175;DHT22;576;48.418;10.074;2023-06-14T02:27:41;22.80;52.50
1175;DHT22;576;48.418;10.074;2023-06-14T02:30:11;22.70;53.40
1175;DHT22;576;48.418;10.074;2023-06-14T02:32:40;22.70;53.70
1175;DHT22;576;48.418;10.074;2023-06-14T02:35:12;22.80;53.00
1175;DHT22;576;48.418;10.074;2023-06-14T02:37:40;22.80;53.00
1175;DHT22;576;48.418;10.074;2023-06-14T02:40:10;22.90;52.90
1175;DHT22;576;48.418;10.074;2023-06-14T02:42:38;22.80;52.80
1175;DHT22;576;48.418;10.074;2023-06-14T02:45:09;22.70;52.60
1175;DHT22;576;48.418;10.074;2023-06-14T02:47:37;22.50;53.10
1175;DHT22;576;48.418;10.074;2023-06-14T02:50:07;22.30;53.00
1175;DHT22;576;48.418;10.074;2023-06-14T02:52:35;22.20;53.30
1175;DHT22;576;48.418;10.074;2023-06-14T02:55:04;22.10;53.40
1175;DHT22;576;48.418;10.074;2023-06-14T02:57:33;22.10;53.60
1175;DHT22;576;48.418;10.074;2023-06-14T03:00:05;22.10;54.10
1175;DHT22;576;48.418;10.074;2023-06-14T03:02:38;22.10;54.20
1175;DHT22;576;48.418;10.074;2023-06-14T03:05:07;22.20;54.60
1175;DHT22;576;48.418;10.074;2023-06-14T03:07:36;22.30;53.60
1175;DHT22;576;48.418;10.074;2023-06-14T03:10:08;22.40;53.80
1175;DHT22;576;48.418;10.074;2023-06-14T03:12:39;22.40;53.90
1175;DHT22;576;48.418;10.074;2023-06-14T03:15:10;22.50;53.70
1175;DHT22;576;48.418;10.074;2023-06-14T03:17:45;22.60;53.60
1175;DHT22;576;48.418;10.074;2023-06-14T03:20:16;22.70;53.70
1175;DHT22;576;48.418;10.074;2023-06-14T03:22:46;22.70;53.20
1175;DHT22;576;48.418;10.074;2023-06-14T03:25:15;22.80;52.70
1175;DHT22;576;48.418;10.074;2023-06-14T03:27:46;22.70;53.10
1175;DHT22;576;48.418;10.074;2023-06-14T03:30:14;22.70;52.80
1175;DHT22;576;48.418;10.074;2023-06-14T03:32:47;22.40;52.90
1175;DHT22;576;48.418;10.074;2023-06-14T03:35:16;22.10;53.30
1175;DHT22;576;48.418;10.074;2023-06-14T03:37:47;22.00;53.80
1175;DHT22;576;48.418;10.074;2023-06-14T03:40:17;22.00;53.70
1175;DHT22;576;48.418;10.074;2023-06-14T03:42:49;22.00;54.00
1175;DHT22;576;48.418;10.074;2023-06-14T03:45:19;21.70;53.80
1175;DHT22;576;48.418;10.074;2023-06-14T03:47:49;21.70;54.20
1175;DHT22;576;48.418;10.074;2023-06-14T03:50:18;21.60;54.70
1175;DHT22;576;48.418;10.074;2023-06-14T03:52:47;21.70;54.40
1175;DHT22;576;48.418;10.074;2023-06-14T03:55:18;21.80;54.50
1175;DHT22;576;48.418;10.074;2023-06-14T03:57:49;21.90;55.00
1175;DHT22;576;48.418;10.074;2023-06-14T04:00:18;22.00;55.60
1175;DHT22;576;48.418;10.074;2023-06-14T04:02:46;22.20;54.60
1175;DHT22;576;48.418;10.074;2023-06-14T04:05:16;22.40;53.70
1175;DHT22;576;48.418;10.074;2023-06-14T04:07:48;22.50;53.80
1175;DHT22;576;48.418;10.074;2023-06-14T04:10:17;22.60;53.80
1175;DHT22;576;48.418;10.074;2023-06-14T04:12:47;22.70;53.80
1175;DHT22;576;48.418;10.074;2023-06-14T04:15:17;22.70;53.10
1175;DHT22;576;48.418;10.074;2023-06-14T04:17:51;22.70;53.40
1175;DHT22;576;48.418;10.074;2023-06-14T04:20:26;22.70;53.40
1175;DHT22;576;48.418;10.074;2023-06-14T04:22:56;22.70;52.80
1175;DHT22;576;48.418;10.074;2023-06-14T04:25:25;22.50;53.30
1175;DHT22;576;48.418;10.074;2023-06-14T04:27:55;22.20;53.60
1175;DHT22;576;48.418;10.074;2023-06-14T04:30:24;22.10;54.40
1175;DHT22;576;48.418;10.074;2023-06-14T04:32:55;22.10;54.00
1175;DHT22;576;48.418;10.074;2023-06-14T04:35:25;22.10;54.90
1175;DHT22;576;48.418;10.074;2023-06-14T04:37:55;22.40;54.90
1175;DHT22;576;48.418;10.074;2023-06-14T04:40:24;22.50;54.10
1175;DHT22;576;48.418;10.074;2023-06-14T04:42:52;22.60;53.90
1175;DHT22;576;48.418;10.074;2023-06-14T04:45:21;22.50;53.90
1175;DHT22;576;48.418;10.074;2023-06-14T04:47:50;22.10;54.70
1175;DHT22;576;48.418;10.074;2023-06-14T04:50:28;21.80;55.40
1175;DHT22;576;48.418;10.074;2023-06-14T04:52:56;21.30;56.10
1175;DHT22;576;48.418;10.074;2023-06-14T04:55:27;21.10;56.40
1175;DHT22;576;48.418;10.074;2023-06-14T04:57:56;21.00;56.70
1175;DHT22;576;48.418;10.074;2023-06-14T05:00:25;20.90;56.80
1175;DHT22;576;48.418;10.074;2023-06-14T05:02:54;20.80;57.40
1175;DHT22;576;48.418;10.074;2023-06-14T05:05:22;20.70;57.40
1175;DHT22;576;48.418;10.074;2023-06-14T05:07:52;20.70;57.90
1175;DHT22;576;48.418;10.074;2023-06-14T05:10:21;20.60;58.00
1175;DHT22;576;48.418;10.074;2023-06-14T05:12:49;20.60;58.20
1175;DHT22;576;48.418;10.074;2023-06-14T05:15:19;20.50;58.00
1175;DHT22;576;48.418;10.074;2023-06-14T05:17:52;20.60;56.80
1175;DHT22;576;48.418;10.074;2023-06-14T05:20:22;20.80;56.00
1175;DHT22;576;48.418;10.074;2023-06-14T05:22:53;21.00;55.90
1175;DHT22;576;48.418;10.074;2023-06-14T05:25:21;21.10;54.50
1175;DHT22;576;48.418;10.074;2023-06-14T05:27:50;21.20;54.60
1175;DHT22;576;48.418;10.074;2023-06-14T05:30:18;21.30;54.40
1175;DHT22;576;48.418;10.074;2023-06-14T05:32:46;21.40;55.10
1175;DHT22;576;48.418;10.074;2023-06-14T05:35:15;21.70;53.50
1175;DHT22;576;48.418;10.074;2023-06-14T05:37:43;21.80;53.70
1175;DHT22;576;48.418;10.074;2023-06-14T05:40:13;21.90;53.60
1175;DHT22;576;48.418;10.074;2023-06-14T05:42:44;22.10;53.10
1175;DHT22;576;48.418;10.074;2023-06-14T05:45:12;22.10;52.60
1175;DHT22;576;48.418;10.074;2023-06-14T05:47:42;22.10;52.50
1175;DHT22;576;48.418;10.074;2023-06-14T05:50:10;22.30;52.20
1175;DHT22;576;48.418;10.074;2023-06-14T05:52:38;22.50;54.60
1175;DHT22;576;48.418;10.074;2023-06-14T05:55:07;22.90;54.10
1175;DHT22;576;48.418;10.074;2023-06-14T05:57:41;23.30;53.00
1175;DHT22;576;48.418;10.074;2023-06-14T06:00:10;23.80;51.50
1175;DHT22;576;48.418;10.074;2023-06-14T06:02:42;24.10;51.10
1175;DHT22;576;48.418;10.074;2023-06-14T06:05:12;24.40;50.30
1175;DHT22;576;48.418;10.074;2023-06-14T06:07:42;24.60;49.50
1175;DHT22;576;48.418;10.074;2023-06-14T06:10:11;24.70;49.30
1175;DHT22;576;48.418;10.074;2023-06-14T06:12:41;24.90;48.70
1175;DHT22;576;48.418;10.074;2023-06-14T06:15:10;25.00;48.50
1175;DHT22;576;48.418;10.074;2023-06-14T06:17:40;25.10;48.20
1175;DHT22;576;48.418;10.074;2023-06-14T06:20:22;25.10;47.10
1175;DHT22;576;48.418;10.074;2023-06-14T06:22:56;24.80;47.30
1175;DHT22;576;48.418;10.074;2023-06-14T06:25:25;24.40;47.80
1175;DHT22;576;48.418;10.074;2023-06-14T06:27:55;24.20;48.90
1175;DHT22;576;48.418;10.074;2023-06-14T06:30:24;24.00;49.00
1175;DHT22;576;48.418;10.074;2023-06-14T06:32:53;23.90;49.10
1175;DHT22;576;48.418;10.074;2023-06-14T06:35:23;23.90;49.50
1175;DHT22;576;48.418;10.074;2023-06-14T06:37:51;23.80;49.60
1175;DHT22;576;48.418;10.074;2023-06-14T06:40:19;23.80;49.60
1175;DHT22;576;48.418;10.074;2023-06-14T06:42:47;23.80;50.10
1175;DHT22;576;48.418;10.074;2023-06-14T06:45:19;23.80;50.50
1175;DHT22;576;48.418;10.074;2023-06-14T06:47:51;23.90;49.70
1175;DHT22;576;48.418;10.074;2023-06-14T06:50:19;24.00;50.00
1175;DHT22;576;48.418;10.074;2023-06-14T06:52:50;24.10;49.90
1175;DHT22;576;48.418;10.074;2023-06-14T06:55:18;24.10;50.20
1175;DHT22;576;48.418;10.074;2023-06-14T06:57:46;24.00;50.20
1175;DHT22;576;48.418;10.074;2023-06-14T07:00:15;23.90;50.30
1175;DHT22;576;48.418;10.074;2023-06-14T07:02:46;23.90;50.70
1175;DHT22;576;48.418;10.074;2023-06-14T07:05:15;24.00;50.80
1175;DHT22;576;48.418;10.074;2023-06-14T07:07:44;24.20;50.40
1175;DHT22;576;48.418;10.074;2023-06-14T07:10:12;24.20;50.10
1175;DHT22;576;48.418;10.074;2023-06-14T07:12:40;24.20;50.20
1175;DHT22;576;48.418;10.074;2023-06-14T07:15:09;24.30;50.40
1175;DHT22;576;48.418;10.074;2023-06-14T07:17:38;24.30;50.10
1175;DHT22;576;48.418;10.074;2023-06-14T07:20:09;24.40;50.60
1175;DHT22;576;48.418;10.074;2023-06-14T07:22:39;24.60;50.10
1175;DHT22;576;48.418;10.074;2023-06-14T07:25:09;24.70;50.00
1175;DHT22;576;48.418;10.074;2023-06-14T07:27:40;24.90;49.80
1175;DHT22;576;48.418;10.074;2023-06-14T07:30:09;25.00;49.40
1175;DHT22;576;48.418;10.074;2023-06-14T07:32:38;25.10;49.50
1175;DHT22;576;48.418;10.074;2023-06-14T07:35:08;25.20;49.50
1175;DHT22;576;48.418;10.074;2023-06-14T07:37:36;25.10;49.10
1175;DHT22;576;48.418;10.074;2023-06-14T07:40:06;25.10;49.40
1175;DHT22;576;48.418;10.074;2023-06-14T07:42:35;25.10;49.40
1175;DHT22;576;48.418;10.074;2023-06-14T07:45:04;25.20;49.60
1175;DHT22;576;48.418;10.074;2023-06-14T07:47:32;25.20;49.70
1175;DHT22;576;48.418;10.074;2023-06-14T07:50:01;25.30;49.30
1175;DHT22;576;48.418;10.074;2023-06-14T07:52:31;25.40;49.40
1175;DHT22;576;48.418;10.074;2023-06-14T07:54:59;25.40;49.30
1175;DHT22;576;48.418;10.074;2023-06-14T07:57:27;25.50;49.50
1175;DHT22;576;48.418;10.074;2023-06-14T07:59:56;25.50;49.30
1175;DHT22;576;48.418;10.074;2023-06-14T08:02:24;25.60;49.10
1175;DHT22;576;48.418;10.074;2023-06-14T08:04:52;25.70;49.20
1175;DHT22;576;48.418;10.074;2023-06-14T08:07:21;25.70;49.10
1175;DHT22;576;48.418;10.074;2023-06-14T08:09:50;25.70;49.20
1175;DHT22;576;48.418;10.074;2023-06-14T08:12:18;25.70;48.80
1175;DHT22;576;48.418;10.074;2023-06-14T08:14:47;25.60;48.90
1175;DHT22;576;48.418;10.074;2023-06-14T08:17:27;25.70;49.40
1175;DHT22;576;48.418;10.074;2023-06-14T08:19:55;25.90;49.60
1175;DHT22;576;48.418;10.074;2023-06-14T08:22:24;26.00;49.40
1175;DHT22;576;48.418;10.074;2023-06-14T08:24:54;26.10;49.20
1175;DHT22;576;48.418;10.074;2023-06-14T08:27:22;26.30;49.00
1175;DHT22;576;48.418;10.074;2023-06-14T08:29:50;26.30;48.90
1175;DHT22;576;48.418;10.074;2023-06-14T08:32:19;26.40;48.80
1175;DHT22;576;48.418;10.074;2023-06-14T08:34:47;26.50;48.70
1175;DHT22;576;48.418;10.074;2023-06-14T08:37:30;26.50;48.50
1175;DHT22;576;48.418;10.074;2023-06-14T08:40:02;26.60;48.50
1175;DHT22;576;48.418;10.074;2023-06-14T08:42:33;26.60;48.50
1175;DHT22;576;48.418;10.074;2023-06-14T08:45:03;26.60;48.40
1175;DHT22;576;48.418;10.074;2023-06-14T08:47:32;26.70;48.30
1175;DHT22;576;48.418;10.074;2023-06-14T08:50:08;26.70;48.20
1175;DHT22;576;48.418;10.074;2023-06-14T08:52:56;26.70;48.20
1175;DHT22;576;48.418;10.074;2023-06-14T08:55:29;26.80;48.10
1175;DHT22;576;48.418;10.074;2023-06-14T08:58:02;26.80;48.10
1175;DHT22;576;48.418;10.074;2023-06-14T09:00:32;26.80;48.00
1175;DHT22;576;48.418;10.074;2023-06-14T09:03:01;26.80;48.00
1175;DHT22;576;48.418;10.074;2023-06-14T09:05:30;26.80;48.00
1175;DHT22;576;48.418;10.074;2023-06-14T09:07:58;26.80;47.90
1175;DHT22;576;48.418;10.074;2023-06-14T09:10:34;26.90;48.00
1175;DHT22;576;48.418;10.074;2023-06-14T09:13:05;26.90;47.90
1175;DHT22;576;48.418;10.074;2023-06-14T09:15:35;26.90;47.90
1175;DHT22;576;48.418;10.074;2023-06-14T09:18:04;26.90;47.80
1175;DHT22;576;48.418;10.074;2023-06-14T09:20:33;27.00;47.80
1175;DHT22;576;48.418;10.074;2023-06-14T09:23:01;27.00;47.80
1175;DHT22;576;48.418;10.074;2023-06-14T09:25:34;27.00;47.80
1175;DHT22;576;48.418;10.074;2023-06-14T09:28:09;27.00;47.70
1175;DHT22;576;48.418;10.074;2023-06-14T09:30:38;27.00;47.70
1175;DHT22;576;48.418;10.074;2023-06-14T09:33:06;27.00;47.70
1175;DHT22;576;48.418;10.074;2023-06-14T09:35:35;27.00;47.70
1175;DHT22;576;48.418;10.074;2023-06-14T09:38:04;27.00;47.70
1175;DHT22;576;48.418;10.074;2023-06-14T09:40:35;27.00;47.70
1175;DHT22;576;48.418;10.074;2023-06-14T09:43:06;27.00;47.70
1175;DHT22;576;48.418;10.074;2023-06-14T09:45:38;27.10;47.70
1175;DHT22;576;48.418;10.074;2023-06-14T09:48:07;27.10;47.70
1175;DHT22;576;48.418;10.074;2023-06-14T09:50:36;27.10;47.70
1175;DHT22;576;48.418;10.074;2023-06-14T09:53:09;27.10;47.50
1175;DHT22;576;48.418;10.074;2023-06-14T09:55:41;27.10;47.40
1175;DHT22;576;48.418;10.074;2023-06-14T09:58:10;27.10;47.30
1175;DHT22;576;48.418;10.074;2023-06-14T10:00:40;27.10;47.20
1175;DHT22;576;48.418;10.074;2023-06-14T10:03:13;27.10;47.30
1175;DHT22;576;48.418;10.074;2023-06-14T10:05:43;27.10;47.30
1175;DHT22;576;48.418;10.074;2023-06-14T10:08:15;27.10;47.30
1175;DHT22;576;48.418;10.074;2023-06-14T10:10:46;27.10;47.20
1175;DHT22;576;48.418;10.074;2023-06-14T10:13:14;27.10;47.30
1175;DHT22;576;48.418;10.074;2023-06-14T10:15:51;27.10;47.20
1175;DHT22;576;48.418;10.074;2023-06-14T10:18:28;27.10;47.30
1175;DHT22;576;48.418;10.074;2023-06-14T10:21:05;27.10;47.30
1175;DHT22;576;48.418;10.074;2023-06-14T10:23:38;27.10;47.20
1175;DHT22;576;48.418;10.074;2023-06-14T10:26:18;27.10;47.20
1175;DHT22;576;48.418;10.074;2023-06-14T10:28:56;27.10;47.20
1175;DHT22;576;48.418;10.074;2023-06-14T10:31:40;27.10;47.20
1175;DHT22;576;48.418;10.074;2023-06-14T10:34:09;27.10;47.20
1175;DHT22;576;48.418;10.074;2023-06-14T10:36:42;27.10;47.20
1175;DHT22;576;48.418;10.074;2023-06-14T10:39:15;27.10;47.20
1175;DHT22;576;48.418;10.074;2023-06-14T10:41:55;27.10;47.20
1175;DHT22;576;48.418;10.074;2023-06-14T10:44:33;27.20;47.20
1175;DHT22;576;48.418;10.074;2023-06-14T10:47:13;27.20;47.20
1175;DHT22;576;48.418;10.074;2023-06-14T10:49:51;27.20;47.10
1175;DHT22;576;48.418;10.074;2023-06-14T10:52:24;27.20;47.10
1175;DHT22;576;48.418;10.074;2023-06-14T10:55:13;27.20;47.10
1175;DHT22;576;48.418;10.074;2023-06-14T10:57:46;27.20;47.00
1175;DHT22;576;48.418;10.074;2023-06-14T11:00:20;27.20;47.30
1175;DHT22;576;48.418;10.074;2023-06-14T11:06:13;27.20;47.30
1175;DHT22;576;48.418;10.074;2023-06-14T11:12:01;27.30;47.00
1175;DHT22;576;48.418;10.074;2023-06-14T11:14:31;27.30;47.30
1175;DHT22;576;48.418;10.074;2023-06-14T11:16:59;27.30;47.80
1175;DHT22;576;48.418;10.074;2023-06-14T11:19:27;27.30;47.70
1175;DHT22;576;48.418;10.074;2023-06-14T11:21:56;27.40;47.40
1175;DHT22;576;48.418;10.074;2023-06-14T11:24:24;27.40;47.50
1175;DHT22;576;48.418;10.074;2023-06-14T11:26:53;27.40;47.10
1175;DHT22;576;48.418;10.074;2023-06-14T11:29:23;27.40;47.40
1175;DHT22;576;48.418;10.074;2023-06-14T11:31:53;27.40;47.20
1175;DHT22;576;48.418;10.074;2023-06-14T11:34:21;27.40;47.00
1175;DHT22;576;48.418;10.074;2023-06-14T11:36:50;27.40;46.90
1175;DHT22;576;48.418;10.074;2023-06-14T11:39:24;27.40;46.90
1175;DHT22;576;48.418;10.074;2023-06-14T11:41:53;27.40;46.80
1175;DHT22;576;48.418;10.074;2023-06-14T11:44:22;27.40;46.70
1175;DHT22;576;48.418;10.074;2023-06-14T11:46:50;27.40;46.70
1175;DHT22;576;48.418;10.074;2023-06-14T11:49:20;27.40;46.70
1175;DHT22;576;48.418;10.074;2023-06-14T11:51:48;27.40;46.80
1175;DHT22;576;48.418;10.074;2023-06-14T11:54:17;27.40;46.90
1175;DHT22;576;48.418;10.074;2023-06-14T11:56:45;27.40;46.60
1175;DHT22;576;48.418;10.074;2023-06-14T11:59:13;27.50;46.40
1175;DHT22;576;48.418;10.074;2023-06-14T12:01:43;27.50;46.30
1175;DHT22;576;48.418;10.074;2023-06-14T12:04:12;27.60;46.20
1175;DHT22;576;48.418;10.074;2023-06-14T12:06:41;27.60;46.20
1175;DHT22;576;48.418;10.074;2023-06-14T12:09:10;27.70;46.20
1175;DHT22;576;48.418;10.074;2023-06-14T12:11:43;27.70;46.20
1175;DHT22;576;48.418;10.074;2023-06-14T12:14:11;27.90;46.00
1175;DHT22;576;48.418;10.074;2023-06-14T12:16:40;28.00;45.90
1175;DHT22;576;48.418;10.074;2023-06-14T12:19:13;28.10;45.80
1175;DHT22;576;48.418;10.074;2023-06-14T12:21:46;28.30;45.60
1175;DHT22;576;48.418;10.074;2023-06-14T12:24:16;28.50;45.50
1175;DHT22;576;48.418;10.074;2023-06-14T12:26:44;28.60;45.30
1175;DHT22;576;48.418;10.074;2023-06-14T12:29:13;28.70;45.00
1175;DHT22;576;48.418;10.074;2023-06-14T12:31:42;28.80;44.90
1175;DHT22;576;48.418;10.074;2023-06-14T12:34:10;28.80;44.80
1175;DHT22;576;48.418;10.074;2023-06-14T12:36:38;28.90;44.70
1175;DHT22;576;48.418;10.074;2023-06-14T12:39:13;28.80;44.20
1175;DHT22;576;48.418;10.074;2023-06-14T12:41:42;28.60;44.30
1175;DHT22;576;48.418;10.074;2023-06-14T12:44:11;28.50;44.50
1175;DHT22;576;48.418;10.074;2023-06-14T12:46:41;28.50;45.00
1175;DHT22;576;48.418;10.074;2023-06-14T12:49:11;28.50;45.00
1175;DHT22;576;48.418;10.074;2023-06-14T12:51:41;28.50;45.10
1175;DHT22;576;48.418;10.074;2023-06-14T12:54:09;28.60;45.10
1175;DHT22;576;48.418;10.074;2023-06-14T12:56:40;28.60;45.30
1175;DHT22;576;48.418;10.074;2023-06-14T12:59:09;28.70;45.40
1175;DHT22;576;48.418;10.074;2023-06-14T13:01:39;28.80;45.40
1175;DHT22;576;48.418;10.074;2023-06-14T13:04:08;28.90;45.40
1175;DHT22;576;48.418;10.074;2023-06-14T13:06:37;29.00;45.40
1175;DHT22;576;48.418;10.074;2023-06-14T13:09:05;29.10;45.20
1175;DHT22;576;48.418;10.074;2023-06-14T13:11:35;29.20;45.20
1175;DHT22;576;48.418;10.074;2023-06-14T13:14:04;29.20;45.30
1175;DHT22;576;48.418;10.074;2023-06-14T13:16:52;29.20;45.30
1175;DHT22;576;48.418;10.074;2023-06-14T13:19:20;29.30;45.30
1175;DHT22;576;48.418;10.074;2023-06-14T13:21:48;29.30;45.30
1175;DHT22;576;48.418;10.074;2023-06-14T13:24:17;29.40;45.30
1175;DHT22;576;48.418;10.074;2023-06-14T13:26:45;29.40;45.40
1175;DHT22;576;48.418;10.074;2023-06-14T13:29:15;29.40;45.30
1175;DHT22;576;48.418;10.074;2023-06-14T13:31:44;29.40;45.40
1175;DHT22;576;48.418;10.074;2023-06-14T13:34:13;29.40;45.40
1175;DHT22;576;48.418;10.074;2023-06-14T13:36:41;29.40;45.40
1175;DHT22;576;48.418;10.074;2023-06-14T13:39:09;29.40;45.40
1175;DHT22;576;48.418;10.074;2023-06-14T13:41:38;29.40;45.30
1175;DHT22;576;48.418;10.074;2023-06-14T13:44:09;29.50;45.20
1175;DHT22;576;48.418;10.074;2023-06-14T13:46:44;29.50;45.30
1175;DHT22;576;48.418;10.074;2023-06-14T13:49:12;29.50;45.10
1175;DHT22;576;48.418;10.074;2023-06-14T13:51:41;29.50;45.20
1175;DHT22;576;48.418;10.074;2023-06-14T13:54:13;29.50;45.10
1175;DHT22;576;48.418;10.074;2023-06-14T13:56:42;29.50;45.10
1175;DHT22;576;48.418;10.074;2023-06-14T13:59:11;29.50;45.10
1175;DHT22;576;48.418;10.074;2023-06-14T14:01:40;29.50;45.10
1175;DHT22;576;48.418;10.074;2023-06-14T14:04:10;29.50;45.20
1175;DHT22;576;48.418;10.074;2023-06-14T14:06:39;29.50;45.30
1175;DHT22;576;48.418;10.074;2023-06-14T14:09:08;29.40;43.70
1175;DHT22;576;48.418;10.074;2023-06-14T14:11:37;29.20;43.00
1175;DHT22;576;48.418;10.074;2023-06-14T14:14:07;29.10;43.00
1175;DHT22;576;48.418;10.074;2023-06-14T14:16:35;28.90;43.20
1175;DHT22;576;48.418;10.074;2023-06-14T14:19:05;28.80;43.20
1175;DHT22;576;48.418;10.074;2023-06-14T14:21:35;28.70;43.30
1175;DHT22;576;48.418;10.074;2023-06-14T14:24:05;28.70;42.90
1175;DHT22;576;48.418;10.074;2023-06-14T14:26:34;28.70;42.90
1175;DHT22;576;48.418;10.074;2023-06-14T14:29:02;28.70;43.10
1175;DHT22;576;48.418;10.074;2023-06-14T14:31:30;28.70;43.00
1175;DHT22;576;48.418;10.074;2023-06-14T14:33:59;28.70;42.80
1175;DHT22;576;48.418;10.074;2023-06-14T14:36:27;28.70;43.00
1175;DHT22;576;48.418;10.074;2023-06-14T14:38:57;28.80;42.60
1175;DHT22;576;48.418;10.074;2023-06-14T14:41:25;28.80;42.50
1175;DHT22;576;48.418;10.074;2023-06-14T14:43:53;28.80;42.80
1175;DHT22;576;48.418;10.074;2023-06-14T14:46:21;28.90;42.70
1175;DHT22;576;48.418;10.074;2023-06-14T14:48:50;28.80;42.70
1175;DHT22;576;48.418;10.074;2023-06-14T14:51:19;28.80;42.40
1175;DHT22;576;48.418;10.074;2023-06-14T14:53:47;28.80;42.90
1175;DHT22;576;48.418;10.074;2023-06-14T14:56:16;28.80;43.20
1175;DHT22;576;48.418;10.074;2023-06-14T14:58:45;28.80;43.30
1175;DHT22;576;48.418;10.074;2023-06-14T15:01:16;28.80;43.40
1175;DHT22;576;48.418;10.074;2023-06-14T15:03:46;28.70;43.70
1175;DHT22;576;48.418;10.074;2023-06-14T15:06:25;28.70;43.80
1175;DHT22;576;48.418;10.074;2023-06-14T15:08:54;28.70;43.50
1175;DHT22;576;48.418;10.074;2023-06-14T15:11:24;28.70;44.30
1175;DHT22;576;48.418;10.074;2023-06-14T15:13:53;28.70;45.00
1175;DHT22;576;48.418;10.074;2023-06-14T15:16:22;28.90;45.10
1175;DHT22;576;48.418;10.074;2023-06-14T15:18:51;29.00;45.00
1175;DHT22;576;48.418;10.074;2023-06-14T15:21:19;29.10;45.10
1175;DHT22;576;48.418;10.074;2023-06-14T15:23:49;29.20;45.10
1175;DHT22;576;48.418;10.074;2023-06-14T15:26:20;29.30;45.10
1175;DHT22;576;48.418;10.074;2023-06-14T15:28:51;29.40;45.30
1175;DHT22;576;48.418;10.074;2023-06-14T15:31:20;29.40;45.10
1175;DHT22;576;48.418;10.074;2023-06-14T15:33:50;29.40;44.40
1175;DHT22;576;48.418;10.074;2023-06-14T15:36:20;29.20;44.50
1175;DHT22;576;48.418;10.074;2023-06-14T15:38:49;29.20;44.70
1175;DHT22;576;48.418;10.074;2023-06-14T15:41:18;29.10;44.70
1175;DHT22;576;48.418;10.074;2023-06-14T15:43:46;29.00;44.90
1175;DHT22;576;48.418;10.074;2023-06-14T15:46:17;29.00;45.10
1175;DHT22;576;48.418;10.074;2023-06-14T15:48:49;28.90;45.10
1175;DHT22;576;48.418;10.074;2023-06-14T15:51:18;28.90;45.20
1175;DHT22;576;48.418;10.074;2023-06-14T15:53:46;28.90;45.20
1175;DHT22;576;48.418;10.074;2023-06-14T15:56:14;28.90;45.10
1175;DHT22;576;48.418;10.074;2023-06-14T15:58:43;28.80;44.90
1175;DHT22;576;48.418;10.074;2023-06-14T16:01:11;28.70;45.00
1175;DHT22;576;48.418;10.074;2023-06-14T16:03:40;28.60;45.10
1175;DHT22;576;48.418;10.074;2023-06-14T16:06:09;28.60;45.20
1175;DHT22;576;48.418;10.074;2023-06-14T16:08:37;28.60;45.00
1175;DHT22;576;48.418;10.074;2023-06-14T16:11:07;28.60;44.70
1175;DHT22;576;48.418;10.074;2023-06-14T16:13:35;28.60;44.90
1175;DHT22;576;48.418;10.074;2023-06-14T16:16:04;28.60;43.30
1175;DHT22;576;48.418;10.074;2023-06-14T16:18:32;28.60;42.30
1175;DHT22;576;48.418;10.074;2023-06-14T16:21:02;28.60;43.80
1175;DHT22;576;48.418;10.074;2023-06-14T16:23:32;28.60;43.80
1175;DHT22;576;48.418;10.074;2023-06-14T16:26:01;28.60;43.80
1175;DHT22;576;48.418;10.074;2023-06-14T16:28:30;28.60;42.70